Terminal Aerodrome Forecast
Issued by NWS

Home | Current Version | Previous Version | Text Only | Print | Product List | Glossary On
Versions: 1 2 3 4 5 6 7 8 9 10 11 12 13 14
001
FTUS45 KRIW 291720
TAFJAC
TAF
KJAC 291720Z 2918/3018 VRB09KT P6SM VCSH SCT028 BKN050
     FM292200 VRB10KT 5SM -SHRA BKN050
     FM300200 VRB08KT 4SM -SHRASN SCT015 BKN025
     FM300500 VRB05KT P6SM VCSH SCT020 BKN040
     FM301200 VRB05KT P6SM SCT045
      AMD LTD TO CLD VIS AND WIND=

USA.gov is the U.S. government's official web portal to all federal, state and local government web resources and services.